sensor_id;sensor_type;location;lat;lon;timestamp;temperature;humidity
38514;DHT22;24282;48.400;10.808;2024-01-07T00:00:03;4.10;87.40
38514;DHT22;24282;48.400;10.808;2024-01-07T00:02:30;4.10;87.70
38514;DHT22;24282;48.400;10.808;2024-01-07T00:04:56;4.20;87.40
38514;DHT22;24282;48.400;10.808;2024-01-07T00:07:23;4.20;87.30
38514;DHT22;24282;48.400;10.808;2024-01-07T00:09:49;4.20;87.40
38514;DHT22;24282;48.400;10.808;2024-01-07T00:12:15;4.10;87.70
38514;DHT22;24282;48.400;10.808;2024-01-07T00:14:40;4.10;87.90
38514;DHT22;24282;48.400;10.808;2024-01-07T00:17:06;4.20;87.70
38514;DHT22;24282;48.400;10.808;2024-01-07T00:19:32;4.10;87.70
38514;DHT22;24282;48.400;10.808;2024-01-07T00:22:00;4.10;87.70
38514;DHT22;24282;48.400;10.808;2024-01-07T00:24:26;4.20;87.80
38514;DHT22;24282;48.400;10.808;2024-01-07T00:26:54;4.10;87.70
38514;DHT22;24282;48.400;10.808;2024-01-07T00:29:20;4.20;87.60
38514;DHT22;24282;48.400;10.808;2024-01-07T00:31:46;4.10;87.80
38514;DHT22;24282;48.400;10.808;2024-01-07T00:34:12;4.20;87.60
38514;DHT22;24282;48.400;10.808;2024-01-07T00:36:37;4.20;87.50
38514;DHT22;24282;48.400;10.808;2024-01-07T00:39:03;4.20;87.60
38514;DHT22;24282;48.400;10.808;2024-01-07T00:41:29;4.20;87.70
38514;DHT22;24282;48.400;10.808;2024-01-07T00:43:55;4.20;87.30
38514;DHT22;24282;48.400;10.808;2024-01-07T00:46:22;4.20;87.40
38514;DHT22;24282;48.400;10.808;2024-01-07T00:48:47;4.20;87.50
38514;DHT22;24282;48.400;10.808;2024-01-07T00:51:13;4.20;87.30
38514;DHT22;24282;48.400;10.808;2024-01-07T00:53:39;4.20;87.30
38514;DHT22;24282;48.400;10.808;2024-01-07T00:56:06;4.20;87.50
38514;DHT22;24282;48.400;10.808;2024-01-07T00:58:33;4.10;87.60
38514;DHT22;24282;48.400;10.808;2024-01-07T01:00:59;4.10;87.90
38514;DHT22;24282;48.400;10.808;2024-01-07T01:03:26;4.20;88.00
38514;DHT22;24282;48.400;10.808;2024-01-07T01:05:52;4.20;87.40
38514;DHT22;24282;48.400;10.808;2024-01-07T01:08:18;4.10;87.30
38514;DHT22;24282;48.400;10.808;2024-01-07T01:10:43;4.10;87.50
38514;DHT22;24282;48.400;10.808;2024-01-07T01:13:09;4.20;87.70
38514;DHT22;24282;48.400;10.808;2024-01-07T01:15:36;4.10;87.80
38514;DHT22;24282;48.400;10.808;2024-01-07T01:18:02;4.10;87.90
38514;DHT22;24282;48.400;10.808;2024-01-07T01:20:28;4.10;88.00
38514;DHT22;24282;48.400;10.808;2024-01-07T01:22:53;4.20;88.00
38514;DHT22;24282;48.400;10.808;2024-01-07T01:25:19;4.20;87.50
38514;DHT22;24282;48.400;10.808;2024-01-07T01:27:45;4.20;87.60
38514;DHT22;24282;48.400;10.808;2024-01-07T01:30:11;4.20;87.20
38514;DHT22;24282;48.400;10.808;2024-01-07T01:32:38;4.10;87.40
38514;DHT22;24282;48.400;10.808;2024-01-07T01:35:05;4.10;87.40
38514;DHT22;24282;48.400;10.808;2024-01-07T01:37:31;4.10;87.30
38514;DHT22;24282;48.400;10.808;2024-01-07T01:39:58;4.20;87.50
38514;DHT22;24282;48.400;10.808;2024-01-07T01:42:24;4.20;87.40
38514;DHT22;24282;48.400;10.808;2024-01-07T01:44:51;4.10;87.60
38514;DHT22;24282;48.400;10.808;2024-01-07T01:47:17;4.10;87.50
38514;DHT22;24282;48.400;10.808;2024-01-07T01:49:45;4.10;87.50
38514;DHT22;24282;48.400;10.808;2024-01-07T01:52:11;4.10;87.80
38514;DHT22;24282;48.400;10.808;2024-01-07T01:54:38;4.10;87.80
38514;DHT22;24282;48.400;10.808;2024-01-07T01:57:05;4.10;87.70
38514;DHT22;24282;48.400;10.808;2024-01-07T01:59:32;4.10;88.00
38514;DHT22;24282;48.400;10.808;2024-01-07T02:02:00;4.20;87.80
38514;DHT22;24282;48.400;10.808;2024-01-07T02:04:26;4.20;87.60
38514;DHT22;24282;48.400;10.808;2024-01-07T02:06:52;4.10;87.60
38514;DHT22;24282;48.400;10.808;2024-01-07T02:09:18;4.20;87.30
38514;DHT22;24282;48.400;10.808;2024-01-07T02:11:43;4.10;87.20
38514;DHT22;24282;48.400;10.808;2024-01-07T02:14:25;4.10;87.40
38514;DHT22;24282;48.400;10.808;2024-01-07T02:16:51;4.10;87.50
38514;DHT22;24282;48.400;10.808;2024-01-07T02:19:18;4.20;87.50
38514;DHT22;24282;48.400;10.808;2024-01-07T02:21:44;4.20;87.40
38514;DHT22;24282;48.400;10.808;2024-01-07T02:24:15;4.10;87.20
38514;DHT22;24282;48.400;10.808;2024-01-07T02:26:41;4.10;87.10
38514;DHT22;24282;48.400;10.808;2024-01-07T02:29:07;4.10;87.20
38514;DHT22;24282;48.400;10.808;2024-01-07T02:31:32;4.10;87.10
38514;DHT22;24282;48.400;10.808;2024-01-07T02:33:58;4.10;87.10
38514;DHT22;24282;48.400;10.808;2024-01-07T02:36:24;4.10;86.90
38514;DHT22;24282;48.400;10.808;2024-01-07T02:38:49;4.10;86.90
38514;DHT22;24282;48.400;10.808;2024-01-07T02:41:15;4.00;87.10
38514;DHT22;24282;48.400;10.808;2024-01-07T02:43:41;4.00;87.30
38514;DHT22;24282;48.400;10.808;2024-01-07T02:46:07;4.00;87.10
38514;DHT22;24282;48.400;10.808;2024-01-07T02:48:33;4.00;87.30
38514;DHT22;24282;48.400;10.808;2024-01-07T02:50:58;4.00;87.40
38514;DHT22;24282;48.400;10.808;2024-01-07T02:53:24;4.00;87.40
38514;DHT22;24282;48.400;10.808;2024-01-07T02:55:50;4.00;87.50
38514;DHT22;24282;48.400;10.808;2024-01-07T02:58:15;4.00;87.60
38514;DHT22;24282;48.400;10.808;2024-01-07T03:00:41;4.00;87.80
38514;DHT22;24282;48.400;10.808;2024-01-07T03:03:07;4.00;87.50
38514;DHT22;24282;48.400;10.808;2024-01-07T03:05:32;4.00;87.10
38514;DHT22;24282;48.400;10.808;2024-01-07T03:07:59;4.00;87.30
38514;DHT22;24282;48.400;10.808;2024-01-07T03:10:26;4.00;87.50
38514;DHT22;24282;48.400;10.808;2024-01-07T03:12:51;3.90;87.60
38514;DHT22;24282;48.400;10.808;2024-01-07T03:15:17;3.90;87.60
38514;DHT22;24282;48.400;10.808;2024-01-07T03:17:43;4.00;87.70
38514;DHT22;24282;48.400;10.808;2024-01-07T03:20:09;4.00;87.70
38514;DHT22;24282;48.400;10.808;2024-01-07T03:22:35;4.00;87.70
38514;DHT22;24282;48.400;10.808;2024-01-07T03:25:01;4.00;87.90
38514;DHT22;24282;48.400;10.808;2024-01-07T03:27:27;4.00;87.60
38514;DHT22;24282;48.400;10.808;2024-01-07T03:29:53;4.00;87.60
38514;DHT22;24282;48.400;10.808;2024-01-07T03:32:18;4.00;87.70
38514;DHT22;24282;48.400;10.808;2024-01-07T03:34:44;4.00;87.80
38514;DHT22;24282;48.400;10.808;2024-01-07T03:37:10;3.90;87.90
38514;DHT22;24282;48.400;10.808;2024-01-07T03:39:35;3.90;87.80
38514;DHT22;24282;48.400;10.808;2024-01-07T03:42:01;4.00;87.60
38514;DHT22;24282;48.400;10.808;2024-01-07T03:44:27;4.00;87.60
38514;DHT22;24282;48.400;10.808;2024-01-07T03:46:52;4.00;87.40
38514;DHT22;24282;48.400;10.808;2024-01-07T03:49:18;4.00;87.50
38514;DHT22;24282;48.400;10.808;2024-01-07T03:51:44;3.90;87.80
38514;DHT22;24282;48.400;10.808;2024-01-07T03:54:09;3.90;87.80
38514;DHT22;24282;48.400;10.808;2024-01-07T03:56:35;3.90;87.70
38514;DHT22;24282;48.400;10.808;2024-01-07T03:59:01;3.90;87.40
38514;DHT22;24282;48.400;10.808;2024-01-07T04:01:26;3.90;87.20
38514;DHT22;24282;48.400;10.808;2024-01-07T04:03:52;3.90;87.30
38514;DHT22;24282;48.400;10.808;2024-01-07T04:06:18;3.90;87.50
38514;DHT22;24282;48.400;10.808;2024-01-07T04:08:43;3.90;87.20
38514;DHT22;24282;48.400;10.808;2024-01-07T04:11:09;3.90;87.30
38514;DHT22;24282;48.400;10.808;2024-01-07T04:13:35;3.90;87.30
38514;DHT22;24282;48.400;10.808;2024-01-07T04:16:00;3.90;87.40
38514;DHT22;24282;48.400;10.808;2024-01-07T04:18:26;3.90;87.40
38514;DHT22;24282;48.400;10.808;2024-01-07T04:20:52;3.80;87.30
38514;DHT22;24282;48.400;10.808;2024-01-07T04:23:17;3.80;87.20
38514;DHT22;24282;48.400;10.808;2024-01-07T04:25:43;3.80;87.30
38514;DHT22;24282;48.400;10.808;2024-01-07T04:28:09;3.80;87.50
38514;DHT22;24282;48.400;10.808;2024-01-07T04:30:35;3.80;87.60
38514;DHT22;24282;48.400;10.808;2024-01-07T04:33:01;3.80;87.40
38514;DHT22;24282;48.400;10.808;2024-01-07T04:35:26;3.80;87.20
38514;DHT22;24282;48.400;10.808;2024-01-07T04:37:52;3.80;87.60
38514;DHT22;24282;48.400;10.808;2024-01-07T04:40:18;3.80;87.60
38514;DHT22;24282;48.400;10.808;2024-01-07T04:42:43;3.80;87.50
38514;DHT22;24282;48.400;10.808;2024-01-07T04:45:09;3.70;87.30
38514;DHT22;24282;48.400;10.808;2024-01-07T04:47:35;3.70;87.40
38514;DHT22;24282;48.400;10.808;2024-01-07T04:50:04;3.80;87.60
38514;DHT22;24282;48.400;10.808;2024-01-07T04:52:30;3.80;87.60
38514;DHT22;24282;48.400;10.808;2024-01-07T04:54:56;3.80;87.70
38514;DHT22;24282;48.400;10.808;2024-01-07T04:57:22;3.80;87.60
38514;DHT22;24282;48.400;10.808;2024-01-07T04:59:49;3.90;87.50
38514;DHT22;24282;48.400;10.808;2024-01-07T05:02:15;3.90;87.30
38514;DHT22;24282;48.400;10.808;2024-01-07T05:04:42;3.80;87.40
38514;DHT22;24282;48.400;10.808;2024-01-07T05:07:07;3.80;87.60
38514;DHT22;24282;48.400;10.808;2024-01-07T05:09:33;3.80;87.80
38514;DHT22;24282;48.400;10.808;2024-01-07T05:12:00;3.80;87.90
38514;DHT22;24282;48.400;10.808;2024-01-07T05:14:26;3.80;87.90
38514;DHT22;24282;48.400;10.808;2024-01-07T05:16:52;3.90;88.00
38514;DHT22;24282;48.400;10.808;2024-01-07T05:19:18;3.80;87.90
38514;DHT22;24282;48.400;10.808;2024-01-07T05:21:44;3.90;87.90
38514;DHT22;24282;48.400;10.808;2024-01-07T05:24:09;3.90;88.00
38514;DHT22;24282;48.400;10.808;2024-01-07T05:26:43;3.90;87.90
38514;DHT22;24282;48.400;10.808;2024-01-07T05:29:09;3.80;87.80
38514;DHT22;24282;48.400;10.808;2024-01-07T05:31:35;3.90;87.50
38514;DHT22;24282;48.400;10.808;2024-01-07T05:34:01;3.80;87.50
38514;DHT22;24282;48.400;10.808;2024-01-07T05:36:27;3.80;87.80
38514;DHT22;24282;48.400;10.808;2024-01-07T05:38:53;3.80;88.00
38514;DHT22;24282;48.400;10.808;2024-01-07T05:41:18;3.90;87.70
38514;DHT22;24282;48.400;10.808;2024-01-07T05:43:44;3.80;87.60
38514;DHT22;24282;48.400;10.808;2024-01-07T05:46:10;3.70;87.70
38514;DHT22;24282;48.400;10.808;2024-01-07T05:48:44;3.80;87.80
38514;DHT22;24282;48.400;10.808;2024-01-07T05:51:10;3.80;87.80
38514;DHT22;24282;48.400;10.808;2024-01-07T05:53:35;3.80;87.80
38514;DHT22;24282;48.400;10.808;2024-01-07T05:56:01;3.80;87.70
38514;DHT22;24282;48.400;10.808;2024-01-07T05:58:29;3.80;87.60
38514;DHT22;24282;48.400;10.808;2024-01-07T06:00:55;3.80;87.70
38514;DHT22;24282;48.400;10.808;2024-01-07T06:03:20;3.90;87.60
38514;DHT22;24282;48.400;10.808;2024-01-07T06:05:46;3.80;87.70
38514;DHT22;24282;48.400;10.808;2024-01-07T06:08:12;3.80;87.80
38514;DHT22;24282;48.400;10.808;2024-01-07T06:10:39;3.80;87.70
38514;DHT22;24282;48.400;10.808;2024-01-07T06:13:05;3.80;87.80
38514;DHT22;24282;48.400;10.808;2024-01-07T06:15:30;3.80;87.70
38514;DHT22;24282;48.400;10.808;2024-01-07T06:17:56;3.80;87.80
38514;DHT22;24282;48.400;10.808;2024-01-07T06:20:23;3.90;87.60
38514;DHT22;24282;48.400;10.808;2024-01-07T06:22:49;3.80;87.60
38514;DHT22;24282;48.400;10.808;2024-01-07T06:25:16;3.80;87.50
38514;DHT22;24282;48.400;10.808;2024-01-07T06:27:42;3.80;87.60
38514;DHT22;24282;48.400;10.808;2024-01-07T06:30:08;3.80;87.40
38514;DHT22;24282;48.400;10.808;2024-01-07T06:32:34;3.70;87.30
38514;DHT22;24282;48.400;10.808;2024-01-07T06:35:01;3.70;87.50
38514;DHT22;24282;48.400;10.808;2024-01-07T06:37:27;3.70;87.60
38514;DHT22;24282;48.400;10.808;2024-01-07T06:39:55;3.70;87.40
38514;DHT22;24282;48.400;10.808;2024-01-07T06:42:20;3.60;87.60
38514;DHT22;24282;48.400;10.808;2024-01-07T06:44:46;3.70;87.60
38514;DHT22;24282;48.400;10.808;2024-01-07T06:47:12;3.60;87.60
38514;DHT22;24282;48.400;10.808;2024-01-07T06:49:38;3.70;87.40
38514;DHT22;24282;48.400;10.808;2024-01-07T06:52:05;3.60;87.40
38514;DHT22;24282;48.400;10.808;2024-01-07T06:54:30;3.60;87.50
38514;DHT22;24282;48.400;10.808;2024-01-07T06:56:56;3.60;87.50
38514;DHT22;24282;48.400;10.808;2024-01-07T06:59:22;3.60;87.30
38514;DHT22;24282;48.400;10.808;2024-01-07T07:01:47;3.50;87.60
38514;DHT22;24282;48.400;10.808;2024-01-07T07:04:13;3.50;87.70
38514;DHT22;24282;48.400;10.808;2024-01-07T07:06:39;3.50;87.70
38514;DHT22;24282;48.400;10.808;2024-01-07T07:09:05;3.50;87.80
38514;DHT22;24282;48.400;10.808;2024-01-07T07:11:31;3.50;87.80
38514;DHT22;24282;48.400;10.808;2024-01-07T07:13:57;3.50;87.90
38514;DHT22;24282;48.400;10.808;2024-01-07T07:16:22;3.50;88.00
38514;DHT22;24282;48.400;10.808;2024-01-07T07:18:48;3.50;88.10
38514;DHT22;24282;48.400;10.808;2024-01-07T07:21:14;3.50;87.90
38514;DHT22;24282;48.400;10.808;2024-01-07T07:23:39;3.50;87.70
38514;DHT22;24282;48.400;10.808;2024-01-07T07:26:05;3.50;87.80
38514;DHT22;24282;48.400;10.808;2024-01-07T07:28:32;3.50;87.70
38514;DHT22;24282;48.400;10.808;2024-01-07T07:30:58;3.50;87.50
38514;DHT22;24282;48.400;10.808;2024-01-07T07:33:23;3.50;87.60
38514;DHT22;24282;48.400;10.808;2024-01-07T07:35:50;3.50;87.50
38514;DHT22;24282;48.400;10.808;2024-01-07T07:38:15;3.50;87.50
38514;DHT22;24282;48.400;10.808;2024-01-07T07:40:41;3.50;87.50
38514;DHT22;24282;48.400;10.808;2024-01-07T07:43:08;3.50;87.20
38514;DHT22;24282;48.400;10.808;2024-01-07T07:45:34;3.50;87.30
38514;DHT22;24282;48.400;10.808;2024-01-07T07:48:00;3.50;87.40
38514;DHT22;24282;48.400;10.808;2024-01-07T07:50:25;3.50;87.60
38514;DHT22;24282;48.400;10.808;2024-01-07T07:52:51;3.50;87.30
38514;DHT22;24282;48.400;10.808;2024-01-07T07:55:17;3.50;87.50
38514;DHT22;24282;48.400;10.808;2024-01-07T07:57:43;3.50;87.40
38514;DHT22;24282;48.400;10.808;2024-01-07T08:00:09;3.50;87.10
38514;DHT22;24282;48.400;10.808;2024-01-07T08:02:38;3.50;87.10
38514;DHT22;24282;48.400;10.808;2024-01-07T08:05:04;3.50;87.20
38514;DHT22;24282;48.400;10.808;2024-01-07T08:07:30;3.50;87.30
38514;DHT22;24282;48.400;10.808;2024-01-07T08:09:56;3.50;87.10
38514;DHT22;24282;48.400;10.808;2024-01-07T08:12:23;3.50;87.10
38514;DHT22;24282;48.400;10.808;2024-01-07T08:14:49;3.50;87.30
38514;DHT22;24282;48.400;10.808;2024-01-07T08:17:15;3.50;87.30
38514;DHT22;24282;48.400;10.808;2024-01-07T08:19:41;3.50;87.10
38514;DHT22;24282;48.400;10.808;2024-01-07T08:22:06;3.50;86.90
38514;DHT22;24282;48.400;10.808;2024-01-07T08:24:32;3.50;87.20
38514;DHT22;24282;48.400;10.808;2024-01-07T08:26:58;3.50;87.20
38514;DHT22;24282;48.400;10.808;2024-01-07T08:29:24;3.50;87.00
38514;DHT22;24282;48.400;10.808;2024-01-07T08:31:50;3.40;87.00
38514;DHT22;24282;48.400;10.808;2024-01-07T08:34:16;3.40;87.10
38514;DHT22;24282;48.400;10.808;2024-01-07T08:36:42;3.40;87.20
38514;DHT22;24282;48.400;10.808;2024-01-07T08:39:08;3.50;87.30
38514;DHT22;24282;48.400;10.808;2024-01-07T08:41:33;3.40;87.30
38514;DHT22;24282;48.400;10.808;2024-01-07T08:43:59;3.40;87.50
38514;DHT22;24282;48.400;10.808;2024-01-07T08:46:25;3.50;87.10
38514;DHT22;24282;48.400;10.808;2024-01-07T08:48:51;3.50;86.90
38514;DHT22;24282;48.400;10.808;2024-01-07T08:51:17;3.50;86.80
38514;DHT22;24282;48.400;10.808;2024-01-07T08:53:42;3.50;86.60
38514;DHT22;24282;48.400;10.808;2024-01-07T08:56:08;3.50;86.50
38514;DHT22;24282;48.400;10.808;2024-01-07T08:58:34;3.50;86.60
38514;DHT22;24282;48.400;10.808;2024-01-07T09:01:00;3.40;86.30
38514;DHT22;24282;48.400;10.808;2024-01-07T09:03:26;3.40;86.10
38514;DHT22;24282;48.400;10.808;2024-01-07T09:05:51;3.40;86.20
38514;DHT22;24282;48.400;10.808;2024-01-07T09:08:17;3.40;86.20
38514;DHT22;24282;48.400;10.808;2024-01-07T09:10:43;3.40;86.50
38514;DHT22;24282;48.400;10.808;2024-01-07T09:13:09;3.40;86.50
38514;DHT22;24282;48.400;10.808;2024-01-07T09:15:35;3.40;86.40
38514;DHT22;24282;48.400;10.808;2024-01-07T09:18:00;3.40;86.30
38514;DHT22;24282;48.400;10.808;2024-01-07T09:20:26;3.40;86.30
38514;DHT22;24282;48.400;10.808;2024-01-07T09:22:52;3.40;86.10
38514;DHT22;24282;48.400;10.808;2024-01-07T09:25:17;3.30;86.10
38514;DHT22;24282;48.400;10.808;2024-01-07T09:27:43;3.30;86.00
38514;DHT22;24282;48.400;10.808;2024-01-07T09:30:09;3.30;86.40
38514;DHT22;24282;48.400;10.808;2024-01-07T09:32:37;3.30;86.50
38514;DHT22;24282;48.400;10.808;2024-01-07T09:35:03;3.20;86.40
38514;DHT22;24282;48.400;10.808;2024-01-07T09:37:31;3.30;86.40
38514;DHT22;24282;48.400;10.808;2024-01-07T09:39:57;3.30;86.40
38514;DHT22;24282;48.400;10.808;2024-01-07T09:42:23;3.30;86.50
38514;DHT22;24282;48.400;10.808;2024-01-07T09:44:50;3.30;86.30
38514;DHT22;24282;48.400;10.808;2024-01-07T09:47:16;3.30;86.10
38514;DHT22;24282;48.400;10.808;2024-01-07T09:49:43;3.30;86.20
38514;DHT22;24282;48.400;10.808;2024-01-07T09:52:11;3.30;86.20
38514;DHT22;24282;48.400;10.808;2024-01-07T09:54:37;3.30;86.00
38514;DHT22;24282;48.400;10.808;2024-01-07T09:57:04;3.20;86.30
38514;DHT22;24282;48.400;10.808;2024-01-07T09:59:36;3.30;85.80
38514;DHT22;24282;48.400;10.808;2024-01-07T10:02:03;3.10;85.70
38514;DHT22;24282;48.400;10.808;2024-01-07T10:04:29;3.20;85.70
38514;DHT22;24282;48.400;10.808;2024-01-07T10:06:56;3.20;85.90
38514;DHT22;24282;48.400;10.808;2024-01-07T10:09:28;3.10;85.90
38514;DHT22;24282;48.400;10.808;2024-01-07T10:11:54;3.10;86.10
38514;DHT22;24282;48.400;10.808;2024-01-07T10:14:20;3.20;86.20
38514;DHT22;24282;48.400;10.808;2024-01-07T10:16:50;3.10;86.10
38514;DHT22;24282;48.400;10.808;2024-01-07T10:19:23;3.10;86.00
38514;DHT22;24282;48.400;10.808;2024-01-07T10:22:00;3.20;85.90
38514;DHT22;24282;48.400;10.808;2024-01-07T10:24:31;3.20;85.60
38514;DHT22;24282;48.400;10.808;2024-01-07T10:27:00;3.10;85.70
38514;DHT22;24282;48.400;10.808;2024-01-07T10:29:26;3.10;86.00
38514;DHT22;24282;48.400;10.808;2024-01-07T10:31:52;3.20;86.20
38514;DHT22;24282;48.400;10.808;2024-01-07T10:34:23;3.10;85.90
38514;DHT22;24282;48.400;10.808;2024-01-07T10:36:51;3.10;85.60
38514;DHT22;24282;48.400;10.808;2024-01-07T10:39:17;3.10;85.80
38514;DHT22;24282;48.400;10.808;2024-01-07T10:41:45;3.10;85.70
38514;DHT22;24282;48.400;10.808;2024-01-07T10:44:12;3.10;85.60
38514;DHT22;24282;48.400;10.808;2024-01-07T10:46:37;3.10;85.70
38514;DHT22;24282;48.400;10.808;2024-01-07T10:49:10;3.10;85.60
38514;DHT22;24282;48.400;10.808;2024-01-07T10:51:39;3.10;85.10
38514;DHT22;24282;48.400;10.808;2024-01-07T10:54:06;3.10;85.20
38514;DHT22;24282;48.400;10.808;2024-01-07T10:56:39;3.00;85.40
38514;DHT22;24282;48.400;10.808;2024-01-07T10:59:09;3.00;85.80
38514;DHT22;24282;48.400;10.808;2024-01-07T11:01:35;3.00;85.50
38514;DHT22;24282;48.400;10.808;2024-01-07T11:04:14;3.00;85.60
38514;DHT22;24282;48.400;10.808;2024-01-07T11:06:51;2.90;85.60
38514;DHT22;24282;48.400;10.808;2024-01-07T11:09:33;2.90;85.60
38514;DHT22;24282;48.400;10.808;2024-01-07T11:12:00;2.80;85.70
38514;DHT22;24282;48.400;10.808;2024-01-07T11:14:41;2.80;86.00
38514;DHT22;24282;48.400;10.808;2024-01-07T11:17:11;2.90;85.80
38514;DHT22;24282;48.400;10.808;2024-01-07T11:19:37;2.90;85.60
38514;DHT22;24282;48.400;10.808;2024-01-07T11:22:25;2.80;85.70
38514;DHT22;24282;48.400;10.808;2024-01-07T11:24:53;2.80;85.80
38514;DHT22;24282;48.400;10.808;2024-01-07T11:27:25;2.80;85.60
38514;DHT22;24282;48.400;10.808;2024-01-07T11:32:22;2.80;85.80
38514;DHT22;24282;48.400;10.808;2024-01-07T11:34:49;2.80;85.60
38514;DHT22;24282;48.400;10.808;2024-01-07T11:37:18;2.80;85.40
38514;DHT22;24282;48.400;10.808;2024-01-07T11:39:48;2.80;85.30
38514;DHT22;24282;48.400;10.808;2024-01-07T11:42:15;2.70;85.70
38514;DHT22;24282;48.400;10.808;2024-01-07T11:44:56;2.70;85.60
38514;DHT22;24282;48.400;10.808;2024-01-07T11:47:24;2.70;85.70
38514;DHT22;24282;48.400;10.808;2024-01-07T11:49:51;2.70;85.70
38514;DHT22;24282;48.400;10.808;2024-01-07T11:52:17;2.70;85.50
38514;DHT22;24282;48.400;10.808;2024-01-07T11:54:43;2.70;85.50
38514;DHT22;24282;48.400;10.808;2024-01-07T11:57:10;2.70;85.70
38514;DHT22;24282;48.400;10.808;2024-01-07T11:59:36;2.70;85.90
38514;DHT22;24282;48.400;10.808;2024-01-07T12:02:03;2.70;85.50
38514;DHT22;24282;48.400;10.808;2024-01-07T12:04:32;2.70;85.60
38514;DHT22;24282;48.400;10.808;2024-01-07T12:06:58;2.60;85.30
38514;DHT22;24282;48.400;10.808;2024-01-07T12:09:25;2.50;85.70
38514;DHT22;24282;48.400;10.808;2024-01-07T12:11:51;2.70;85.60
38514;DHT22;24282;48.400;10.808;2024-01-07T12:14:17;2.60;85.50
38514;DHT22;24282;48.400;10.808;2024-01-07T12:16:43;2.50;85.50
38514;DHT22;24282;48.400;10.808;2024-01-07T12:19:09;2.50;85.60
38514;DHT22;24282;48.400;10.808;2024-01-07T12:21:36;2.50;85.50
38514;DHT22;24282;48.400;10.808;2024-01-07T12:24:03;2.50;85.70
38514;DHT22;24282;48.400;10.808;2024-01-07T12:26:29;2.50;85.60
38514;DHT22;24282;48.400;10.808;2024-01-07T12:28:57;2.50;85.70
38514;DHT22;24282;48.400;10.808;2024-01-07T12:31:33;2.50;85.70
38514;DHT22;24282;48.400;10.808;2024-01-07T12:33:59;2.50;85.60
38514;DHT22;24282;48.400;10.808;2024-01-07T12:36:30;2.50;85.90
38514;DHT22;24282;48.400;10.808;2024-01-07T12:38:56;2.50;86.00
38514;DHT22;24282;48.400;10.808;2024-01-07T12:41:23;2.50;85.80
38514;DHT22;24282;48.400;10.808;2024-01-07T12:43:49;2.50;85.60
38514;DHT22;24282;48.400;10.808;2024-01-07T12:46:16;2.40;85.60
38514;DHT22;24282;48.400;10.808;2024-01-07T12:48:42;2.50;85.80
38514;DHT22;24282;48.400;10.808;2024-01-07T12:51:08;2.40;85.60
38514;DHT22;24282;48.400;10.808;2024-01-07T12:53:33;2.40;85.90
38514;DHT22;24282;48.400;10.808;2024-01-07T12:55:59;2.40;86.00
38514;DHT22;24282;48.400;10.808;2024-01-07T12:58:25;2.40;86.00
38514;DHT22;24282;48.400;10.808;2024-01-07T13:00:50;2.40;86.00
38514;DHT22;24282;48.400;10.808;2024-01-07T13:03:16;2.40;85.60
38514;DHT22;24282;48.400;10.808;2024-01-07T13:05:46;2.40;85.70
38514;DHT22;24282;48.400;10.808;2024-01-07T13:08:14;2.40;85.70
38514;DHT22;24282;48.400;10.808;2024-01-07T13:10:39;2.40;85.80
38514;DHT22;24282;48.400;10.808;2024-01-07T13:13:05;2.40;85.70
38514;DHT22;24282;48.400;10.808;2024-01-07T13:15:31;2.40;85.80
38514;DHT22;24282;48.400;10.808;2024-01-07T13:17:57;2.40;85.50
38514;DHT22;24282;48.400;10.808;2024-01-07T13:20:23;2.40;85.60
38514;DHT22;24282;48.400;10.808;2024-01-07T13:22:52;2.40;85.20
38514;DHT22;24282;48.400;10.808;2024-01-07T13:25:17;2.40;85.20
38514;DHT22;24282;48.400;10.808;2024-01-07T13:27:44;2.30;85.00
38514;DHT22;24282;48.400;10.808;2024-01-07T13:30:10;2.30;85.00
38514;DHT22;24282;48.400;10.808;2024-01-07T13:32:36;2.30;84.80
38514;DHT22;24282;48.400;10.808;2024-01-07T13:35:03;2.20;84.90
38514;DHT22;24282;48.400;10.808;2024-01-07T13:37:29;2.20;85.40
38514;DHT22;24282;48.400;10.808;2024-01-07T13:39:56;2.20;85.40
38514;DHT22;24282;48.400;10.808;2024-01-07T13:42:22;2.10;85.20
38514;DHT22;24282;48.400;10.808;2024-01-07T13:44:48;2.10;85.60
38514;DHT22;24282;48.400;10.808;2024-01-07T13:47:13;2.10;85.80
38514;DHT22;24282;48.400;10.808;2024-01-07T13:49:43;2.10;85.70
38514;DHT22;24282;48.400;10.808;2024-01-07T13:52:11;2.20;85.50
38514;DHT22;24282;48.400;10.808;2024-01-07T13:54:36;2.20;85.50
38514;DHT22;24282;48.400;10.808;2024-01-07T13:57:03;2.10;85.30
38514;DHT22;24282;48.400;10.808;2024-01-07T13:59:29;2.00;85.60
38514;DHT22;24282;48.400;10.808;2024-01-07T14:01:55;2.10;85.70
38514;DHT22;24282;48.400;10.808;2024-01-07T14:04:23;2.10;85.40
38514;DHT22;24282;48.400;10.808;2024-01-07T14:06:59;2.00;85.50
38514;DHT22;24282;48.400;10.808;2024-01-07T14:09:24;2.10;85.10
38514;DHT22;24282;48.400;10.808;2024-01-07T14:11:53;2.00;84.90
38514;DHT22;24282;48.400;10.808;2024-01-07T14:14:19;2.00;85.30
38514;DHT22;24282;48.400;10.808;2024-01-07T14:16:45;2.00;85.20
38514;DHT22;24282;48.400;10.808;2024-01-07T14:19:12;2.00;85.20
38514;DHT22;24282;48.400;10.808;2024-01-07T14:21:40;2.00;85.20
38514;DHT22;24282;48.400;10.808;2024-01-07T14:24:08;2.00;85.20
38514;DHT22;24282;48.400;10.808;2024-01-07T14:26:34;2.00;85.00
38514;DHT22;24282;48.400;10.808;2024-01-07T14:29:00;2.00;85.00
38514;DHT22;24282;48.400;10.808;2024-01-07T14:31:26;2.00;85.40
38514;DHT22;24282;48.400;10.808;2024-01-07T14:33:51;2.00;85.30
38514;DHT22;24282;48.400;10.808;2024-01-07T14:36:17;1.90;85.40
38514;DHT22;24282;48.400;10.808;2024-01-07T14:38:46;1.90;85.50
38514;DHT22;24282;48.400;10.808;2024-01-07T14:41:14;1.90;85.30
38514;DHT22;24282;48.400;10.808;2024-01-07T14:43:40;1.90;85.50
38514;DHT22;24282;48.400;10.808;2024-01-07T14:46:09;1.90;85.20
38514;DHT22;24282;48.400;10.808;2024-01-07T14:48:35;1.90;85.10
38514;DHT22;24282;48.400;10.808;2024-01-07T14:51:02;1.80;85.20
38514;DHT22;24282;48.400;10.808;2024-01-07T14:53:28;1.90;85.10
38514;DHT22;24282;48.400;10.808;2024-01-07T14:55:54;1.80;85.10
38514;DHT22;24282;48.400;10.808;2024-01-07T14:58:20;1.80;85.10
38514;DHT22;24282;48.400;10.808;2024-01-07T15:00:48;1.80;85.40
38514;DHT22;24282;48.400;10.808;2024-01-07T15:03:14;1.80;85.70
38514;DHT22;24282;48.400;10.808;2024-01-07T15:05:40;1.80;85.80
38514;DHT22;24282;48.400;10.808;2024-01-07T15:08:07;1.80;85.70
38514;DHT22;24282;48.400;10.808;2024-01-07T15:10:33;1.90;85.50
38514;DHT22;24282;48.400;10.808;2024-01-07T15:12:59;1.90;85.50
38514;DHT22;24282;48.400;10.808;2024-01-07T15:15:24;1.90;85.50
38514;DHT22;24282;48.400;10.808;2024-01-07T15:17:56;1.90;85.30
38514;DHT22;24282;48.400;10.808;2024-01-07T15:20:27;1.90;85.30
38514;DHT22;24282;48.400;10.808;2024-01-07T15:22:53;1.80;85.30
38514;DHT22;24282;48.400;10.808;2024-01-07T15:25:19;1.80;85.10
38514;DHT22;24282;48.400;10.808;2024-01-07T15:27:45;1.80;85.10